首页
METAR-TAF:

METAR-TAF

机场 :

赫拉特国际机场

赫拉特, 阿富汗

纬度: 34-13N, 经度: 062-13E, 海拔: 964米

当前天气观测

该预报发布于39分钟前的12:55 UTC
风速3节,风向多变
温度 19°C
湿度 43%
气压 1015 hPa
能见度10公里或以上
1500米以下无云,无积雨云

METAR: OAHR 291255Z VRB03KT CAVOK 19/06 Q1015 RMK A3000 BLU

时间: 18:04 (13:34 UTC)

预报

该预报发布于8小时和34分钟前的05:00 UTC
预报有效从29日的 06点(UTC)到 01日的 06点(UTC)
风速3节,风向多变
能見度: 6000
成为
从 29日的 07点(UTC)到 29日的 09点(UTC)
能见度10公里或以上
1500米以下无云,无积雨云

TAF: OAHR 290500Z 2906/0106 VRB03KT 6000 NSC BECMG 2907/2909 CAVOK

超过4000个机场的气象观测和天气预报(METAR&TAF报告)。

可查询的气象台以黄色和红色小点在地图上表示。

将鼠标移到小点上方,可查看气象台名称。

然后点击查看天气观测和预报。

如需切换地图:点击带黑十字的绿色按钮放大地图;点击带横线的绿色按钮缩小地图;或者点击绿色箭头查看邻近地区的地图。


METAR-TAF: